• Join FlightAware (Why Join?)
  • Login
  • US Flag 
01:16PM EDT


 

Airport Tracker/Info


-or-


 

Live Flight TrackerFlight Track Log ✈ DAL1562 ✈ 05-Apr-2013 ✈ KGRR - KDTW

Flight Track Log - Related Links

Times and Time Zones

All times are in EDT time to prevent confusion due to time zone crossing. See the DAL1562 flight status page for this flight to view local times or setup timezone preferences in your user account.

Time Position Orientation Groundspeed Altitude Reporting Facility
EDT Latitude Longitude Course Direction KTS MPH feet Rate Location/Type
03:54PM 42.8778 -85.5567 345° North 199 229 2,400  Level Chicago Center
03:55PM 42.9406 -85.5792 345° North 255 293 6,400 3,540 Climbing Chicago Center
03:56PM 42.9675 -85.4808 69° East 286 329 9,800 2,760 Climbing Chicago Center
03:57PM 42.9906 -85.3650 75° East 314 361 12,200 2,340 Climbing Chicago Center
03:58PM 43.0167 -85.2200 76° East 386 444 14,700 1,380 Climbing Chicago Center
03:59PM 43.0444 -85.0719 76° East 403 464 15,100 180 Climbing Chicago Center
04:00PM 43.0711 -84.9233 76° East 403 464 15,100  Level Chicago Center
04:01PM 43.0658 -84.7406 92° East 409 471 15,100  Level Chicago Center
04:02PM 43.0339 -84.5950 107° East 403 464 15,100  Level Chicago Center
04:03PM 43.0011 -84.4486 107° East 403 464 15,100  Level Chicago Center
04:04PM 42.9683 -84.3019 107° East 404 465 15,100  Level Chicago Center
04:05PM 42.9522 -84.2456 111° Southeast 401 461 15,100  Level Cleveland Center
04:05PM 42.9397 -84.1794 104° East 402 463 15,100  Level Cleveland Center
04:06PM 42.9192 -84.1017 110° East 406 467 15,100  Level Cleveland Center
04:06PM 42.9047 -84.0328 106° East 408 470 15,100 -300 Level Cleveland Center
04:07PM 42.8842 -83.9525 109° East 411 473 14,800 -1,500 Descending Cleveland Center
04:07PM 42.8694 -83.8781 105° East 404 465 13,600 -2,220 Descending Cleveland Center
04:08PM 42.8528 -83.8119 109° East 401 461 12,600 -1,500 Descending Cleveland Center
04:08PM 42.8294 -83.7428 115° Southeast 383 441 12,100 -540 Descending Cleveland Center
04:09PM 42.7889 -83.7011 143° Southeast 379 436 12,100  Level Cleveland Center
04:09PM 42.7333 -83.6728 159° South 389 448 12,100 -120 Level Cleveland Center
04:10PM 42.6883 -83.6453 156° South 368 423 12,000  Descending Cleveland Center
04:10PM 42.6486 -83.6211 156° South 338 389 12,100 120 Climbing FAA TRACON SMA TRACON (SMA)
04:10PM 42.6175 -83.6031 157° South 315 362 12,100  Level FAA TRACON SMA TRACON (SMA)
04:11PM 42.5944 -83.5894 157° South 295 339 12,100  Level FAA TRACON SMA TRACON (SMA)
04:11PM 42.5683 -83.5733 156° South 283 326 12,100  Level FAA TRACON SMA TRACON (SMA)
04:11PM 42.5469 -83.5606 156° South 278 320 12,100  Level FAA TRACON SMA TRACON (SMA)
04:12PM 42.5250 -83.5475 156° South 278 320 12,100  Level FAA TRACON SMA TRACON (SMA)
04:12PM 42.4972 -83.5317 157° South 281 323 12,100  Level FAA TRACON SMA TRACON (SMA)
04:12PM 42.4750 -83.5189 157° South 281 323 12,100  Level FAA TRACON SMA TRACON (SMA)
04:13PM 42.4603 -83.5131 164° South 292 336 12,100  Level Cleveland Center
04:13PM 42.4153 -83.4886 158° South 281 323 12,100  Level Cleveland Center
04:14PM 42.3864 -83.4731 158° South 286 329 12,100  Level Cleveland Center
04:14PM 42.3533 -83.4514 154° Southeast 276 318 12,100 -180 Level FAA TRACON SMA TRACON (SMA)
04:14PM 42.3306 -83.4472 172° South 270 311 12,000 -600 Descending FAA TRACON SMA TRACON (SMA)
04:15PM 42.3078 -83.4450 176° South 267 307 11,700 -1,080 Descending FAA TRACON SMA TRACON (SMA)
04:15PM 42.2800 -83.4436 178° South 262 302 11,300 -1,080 Descending FAA TRACON SMA TRACON (SMA)
04:15PM 42.2594 -83.4464 186° South 239 275 11,000 -1,080 Descending FAA TRACON SMA TRACON (SMA)
04:16PM 42.2425 -83.4569 205° Southwest 213 245 10,600 -1,380 Descending FAA TRACON SMA TRACON (SMA)
04:16PM 42.2233 -83.4708 208° Southwest 212 244 10,100 -1,680 Descending FAA TRACON SMA TRACON (SMA)
04:16PM 42.2078 -83.4836 211° Southwest 213 245 9,500 -1,980 Descending FAA TRACON SMA TRACON (SMA)
04:17PM 42.1881 -83.4994 211° Southwest 213 245 8,800 -2,100 Descending FAA TRACON SMA TRACON (SMA)
04:17PM 42.1722 -83.5119 210° Southwest 212 244 8,100 -2,100 Descending FAA TRACON SMA TRACON (SMA)
04:17PM 42.1569 -83.5244 211° Southwest 211 243 7,400 -2,220 Descending FAA TRACON SMA TRACON (SMA)
04:18PM 42.1381 -83.5408 213° Southwest 211 243 6,600 -2,100 Descending FAA TRACON SMA TRACON (SMA)
04:18PM 42.1250 -83.5528 214° Southwest 210 242 6,000 -1,860 Descending FAA TRACON SMA TRACON (SMA)
04:18PM 42.1086 -83.5683 215° Southwest 208 239 5,400 -1,380 Descending FAA TRACON SMA TRACON (SMA)
04:19PM 42.0944 -83.5819 215° Southwest 205 236 5,100 -480 Descending FAA TRACON SMA TRACON (SMA)
04:19PM 42.0747 -83.5797 175° South 212 244 5,100  Level FAA TRACON SMA TRACON (SMA)
04:19PM 42.0597 -83.5619 139° Southeast 209 241 5,100  Level FAA TRACON SMA TRACON (SMA)
04:20PM 42.0514 -83.5364 114° Southeast 206 237 5,100 -300 Level FAA TRACON SMA TRACON (SMA)
04:20PM 42.0564 -83.5144 73° East 197 227 4,900 -1,080 Descending FAA TRACON SMA TRACON (SMA)
04:20PM 42.0625 -83.4975 64° Northeast 198 228 4,500 -1,620 Descending Cleveland Center